createdAt,value
2019-04-28T00:01:21.486Z,99196.93
2019-04-28T00:03:51.590Z,99196.93
2019-04-28T00:06:21.228Z,99215.47
2019-04-28T00:08:51.769Z,99207.14
2019-04-28T00:11:21.923Z,99213.72
2019-04-28T00:13:53.712Z,99208.00
2019-04-28T00:16:22.937Z,99213.59
2019-04-28T00:18:53.607Z,99214.72
2019-04-28T00:21:46.805Z,99223.37
2019-04-28T00:24:34.553Z,99223.37
2019-04-28T00:27:08.964Z,99219.98
2019-04-28T00:29:41.321Z,99219.98
2019-04-28T00:32:11.222Z,99213.41
2019-04-28T00:34:41.358Z,99208.70
2019-04-28T00:37:17.174Z,99208.70
2019-04-28T00:39:46.491Z,99228.42
2019-04-28T00:42:16.974Z,99224.42
2019-04-28T00:44:47.463Z,99224.42
2019-04-28T00:47:16.855Z,99192.80
2019-04-28T00:49:46.615Z,99192.80
2019-04-28T00:52:22.314Z,99201.98
2019-04-28T00:54:52.618Z,99203.69
2019-04-28T00:57:24.458Z,99204.78
2019-04-28T00:59:58.455Z,99195.56
2019-04-28T01:02:41.407Z,99204.78
2019-04-28T01:05:11.989Z,99204.80
2019-04-28T01:07:41.603Z,99204.77
2019-04-28T01:10:12.513Z,99189.36
2019-04-28T01:12:41.307Z,99189.36
2019-04-28T01:15:20.193Z,99187.07
2019-04-28T01:17:56.718Z,99187.61
2019-04-28T01:20:25.650Z,99189.17
2019-04-28T01:22:55.821Z,99186.97
2019-04-28T01:25:25.649Z,99181.55
2019-04-28T01:27:56.518Z,99189.10
2019-04-28T01:30:55.563Z,99181.34
2019-04-28T01:34:03.597Z,99188.50
2019-04-28T01:36:34.664Z,99180.56
2019-04-28T01:39:05.935Z,99180.56
2019-04-28T01:41:36.766Z,99181.73
2019-04-28T01:44:05.895Z,99181.41
2019-04-28T01:46:34.991Z,99187.59
2019-04-28T01:49:04.295Z,99180.18
2019-04-28T01:51:33.514Z,99189.17
2019-04-28T01:54:02.772Z,99195.97
2019-04-28T01:56:30.892Z,99201.05
2019-04-28T01:59:00.356Z,99198.10
2019-04-28T02:01:30.152Z,99199.92
2019-04-28T02:04:00.272Z,99200.86
2019-04-28T02:06:30.061Z,99205.50
2019-04-28T02:09:00.719Z,99196.61
2019-04-28T02:11:30.459Z,99194.81
2019-04-28T02:13:59.785Z,99196.73
2019-04-28T02:16:29.711Z,99194.17
2019-04-28T02:18:59.775Z,99193.31
2019-04-28T02:22:00.833Z,99197.73
2019-04-28T02:24:34.297Z,99202.53
2019-04-28T02:27:03.609Z,99198.00
2019-04-28T02:29:32.576Z,99188.98
2019-04-28T02:32:02.472Z,99195.77
2019-04-28T02:34:31.424Z,99195.77
2019-04-28T02:37:01.632Z,99182.59
2019-04-28T02:39:32.049Z,99182.59
2019-04-28T02:42:01.722Z,99192.89
2019-04-28T02:44:34.724Z,99193.41
2019-04-28T02:47:02.736Z,99197.45
2019-04-28T02:49:36.883Z,99192.85
2019-04-28T02:52:16.835Z,99190.91
2019-04-28T02:54:46.102Z,99195.74
2019-04-28T02:57:14.983Z,99184.42
2019-04-28T02:59:44.827Z,99176.16
2019-04-28T03:02:14.484Z,99172.47
2019-04-28T03:04:43.654Z,99172.02
2019-04-28T03:07:14.575Z,99166.47
2019-04-28T03:09:43.308Z,99166.47
2019-04-28T03:12:12.566Z,99163.27
2019-04-28T03:14:44.013Z,99164.36
2019-04-28T03:17:13.046Z,99166.25
2019-04-28T03:19:42.601Z,99167.89
2019-04-28T03:22:11.776Z,99161.97
2019-04-28T03:24:42.293Z,99161.97
2019-04-28T03:27:42.980Z,99165.95
2019-04-28T03:30:33.783Z,99163.53
2019-04-28T03:33:10.662Z,99164.18
2019-04-28T03:35:34.375Z,99158.37
2019-04-28T03:38:04.560Z,99158.37
2019-04-28T03:40:33.893Z,99165.83
2019-04-28T03:43:03.376Z,99165.83
2019-04-28T03:45:40.993Z,99171.92
2019-04-28T03:48:11.492Z,99162.33
2019-04-28T03:50:41.325Z,99162.33
2019-04-28T03:53:11.294Z,99160.95
2019-04-28T03:55:41.694Z,99161.28
2019-04-28T03:58:11.060Z,99164.63
2019-04-28T04:00:40.911Z,99167.06
2019-04-28T04:03:11.074Z,99164.28
2019-04-28T04:05:40.854Z,99161.70
2019-04-28T04:08:11.033Z,99164.78
2019-04-28T04:11:15.647Z,99162.50
2019-04-28T04:14:04.615Z,99166.35
2019-04-28T04:16:56.297Z,99146.87
2019-04-28T04:19:26.290Z,99146.87
2019-04-28T04:21:57.012Z,99156.03
2019-04-28T04:24:26.901Z,99161.73
2019-04-28T04:26:57.023Z,99161.05
2019-04-28T04:29:26.953Z,99158.81
2019-04-28T04:32:10.098Z,99156.73
2019-04-28T04:34:30.171Z,99161.30
2019-04-28T04:37:00.681Z,99165.80
2019-04-28T04:39:30.428Z,99162.48
2019-04-28T04:42:00.669Z,99168.05
2019-04-28T04:44:30.986Z,99163.31
2019-04-28T04:47:01.061Z,99168.57
2019-04-28T04:49:31.583Z,99171.25
2019-04-28T04:52:01.239Z,99171.14
2019-04-28T04:54:32.753Z,99176.04
2019-04-28T04:57:01.482Z,99173.71
2019-04-28T04:59:32.322Z,99170.52
2019-04-28T05:02:19.125Z,99172.09
2019-04-28T05:05:01.638Z,99173.80
2019-04-28T05:07:30.716Z,99164.14
2019-04-28T05:09:59.550Z,99164.14
2019-04-28T05:12:30.611Z,99177.39
2019-04-28T05:15:00.506Z,99182.23
2019-04-28T05:17:30.185Z,99177.25
2019-04-28T05:20:01.248Z,99177.25
2019-04-28T05:22:33.469Z,99175.17
2019-04-28T05:25:11.957Z,99175.17
2019-04-28T05:27:41.610Z,99185.70
2019-04-28T05:30:23.631Z,99181.05
2019-04-28T05:32:56.235Z,99181.05
2019-04-28T05:35:25.217Z,99200.19
2019-04-28T05:37:55.776Z,99207.09
2019-04-28T05:40:26.061Z,99198.45
2019-04-28T05:43:00.691Z,99206.45
2019-04-28T05:45:32.167Z,99202.56
2019-04-28T05:48:01.885Z,99202.56
2019-04-28T05:50:50.615Z,99200.11
2019-04-28T05:53:26.262Z,99191.15
2019-04-28T05:56:24.303Z,99198.41
2019-04-28T05:58:56.974Z,99194.47
2019-04-28T06:02:00.643Z,99201.37
2019-04-28T06:04:30.529Z,99207.02
2019-04-28T06:07:05.718Z,99199.56
2019-04-28T06:09:45.797Z,99204.16
2019-04-28T06:12:16.032Z,99201.84
2019-04-28T06:14:50.016Z,99203.50
2019-04-28T06:17:20.597Z,99208.48
2019-04-28T06:19:50.445Z,99214.28
2019-04-28T06:22:19.882Z,99217.48
2019-04-28T06:24:48.985Z,99217.48
2019-04-28T06:27:18.105Z,99218.66
2019-04-28T06:29:47.401Z,99219.20
2019-04-28T06:32:16.709Z,99221.64
2019-04-28T06:34:46.063Z,99218.92
2019-04-28T06:37:15.356Z,99223.70
2019-04-28T06:39:47.212Z,99230.94
2019-04-28T06:42:14.933Z,99237.16
2019-04-28T06:44:44.442Z,99237.16
2019-04-28T06:47:13.454Z,99240.08
2019-04-28T06:49:42.613Z,99244.38
2019-04-28T06:52:10.833Z,99244.50
2019-04-28T06:54:39.916Z,99242.34
2019-04-28T06:57:10.889Z,99247.36
2019-04-28T06:59:39.951Z,99248.48
2019-04-28T07:02:09.002Z,99247.89
2019-04-28T07:04:37.936Z,99243.62
2019-04-28T07:07:07.005Z,99233.23
2019-04-28T07:09:36.044Z,99229.67
2019-04-28T07:12:05.089Z,99231.14
2019-04-28T07:14:35.104Z,99225.14
2019-04-28T07:17:03.920Z,99225.32
2019-04-28T07:19:33.509Z,99222.82
2019-04-28T07:22:28.549Z,99209.30
2019-04-28T07:24:58.841Z,99219.25
2019-04-28T07:27:28.955Z,99219.25
2019-04-28T07:29:59.119Z,99220.75
2019-04-28T07:32:28.709Z,99213.56
2019-04-28T07:34:57.547Z,99217.81
2019-04-28T07:37:26.955Z,99213.49
2019-04-28T07:39:57.819Z,99213.49
2019-04-28T07:42:27.574Z,99215.52
2019-04-28T07:44:56.559Z,99219.05
2019-04-28T07:47:26.545Z,99219.05
2019-04-28T07:49:55.231Z,99215.23
2019-04-28T07:52:33.563Z,99221.10
2019-04-28T07:55:02.905Z,99210.99
2019-04-28T07:57:33.562Z,99210.99
2019-04-28T08:00:03.492Z,99195.70
2019-04-28T08:02:34.635Z,99195.70
2019-04-28T08:05:04.103Z,99207.92
2019-04-28T08:07:36.351Z,99207.92
2019-04-28T08:10:06.153Z,99211.47
2019-04-28T08:12:36.929Z,99224.42
2019-04-28T08:15:06.542Z,99228.36
2019-04-28T08:17:35.807Z,99237.95
2019-04-28T08:20:08.619Z,99257.78
2019-04-28T08:22:38.739Z,99263.05
2019-04-28T08:25:11.316Z,99262.55
2019-04-28T08:27:43.473Z,99263.34
2019-04-28T08:30:15.786Z,99260.44
2019-04-28T08:32:56.563Z,99256.64
2019-04-28T08:35:25.669Z,99254.44
2019-04-28T08:37:57.966Z,99254.44
2019-04-28T08:40:27.747Z,99270.30
2019-04-28T08:42:55.861Z,99253.30
2019-04-28T08:45:24.726Z,99261.45
2019-04-28T08:47:53.758Z,99260.50
2019-04-28T08:50:21.885Z,99258.47
2019-04-28T08:52:50.908Z,99270.00
2019-04-28T08:55:20.119Z,99264.31
2019-04-28T08:57:49.555Z,99256.35
2019-04-28T09:00:19.643Z,99250.83
2019-04-28T09:02:48.253Z,99250.38
2019-04-28T09:05:17.608Z,99241.38
2019-04-28T09:07:46.740Z,99242.41
2019-04-28T09:10:16.138Z,99242.41
2019-04-28T09:12:45.098Z,99240.20
2019-04-28T09:15:14.124Z,99241.42
2019-04-28T09:17:42.965Z,99234.41
2019-04-28T09:20:12.151Z,99246.26
2019-04-28T09:22:42.044Z,99239.15
2019-04-28T09:25:14.017Z,99237.31
2019-04-28T09:27:42.922Z,99241.02
2019-04-28T09:30:12.094Z,99233.70
2019-04-28T09:32:44.148Z,99230.24
2019-04-28T09:35:13.553Z,99233.45
2019-04-28T09:37:43.155Z,99236.31
2019-04-28T09:40:14.011Z,99225.02
2019-04-28T09:43:02.514Z,99225.47
2019-04-28T09:45:55.308Z,99218.66
2019-04-28T09:48:24.565Z,99218.66
2019-04-28T09:50:53.586Z,99221.23
2019-04-28T09:53:21.848Z,99218.64
2019-04-28T09:55:50.931Z,99218.64
2019-04-28T09:58:20.037Z,99219.03
2019-04-28T10:00:49.170Z,99223.36
2019-04-28T10:03:18.293Z,99214.95
2019-04-28T10:05:48.445Z,99216.67
2019-04-28T10:08:17.568Z,99222.33
2019-04-28T10:10:46.633Z,99224.41
2019-04-28T10:13:17.132Z,99224.41
2019-04-28T10:15:46.316Z,99248.83
2019-04-28T10:18:15.455Z,99250.75
2019-04-28T10:20:44.465Z,99244.91
2019-04-28T10:23:14.289Z,99247.33
2019-04-28T10:25:43.577Z,99244.91
2019-04-28T10:28:12.757Z,99244.92
2019-04-28T10:30:40.884Z,99244.92
2019-04-28T10:33:09.949Z,99255.52
2019-04-28T10:35:38.985Z,99265.45
2019-04-28T10:38:08.290Z,99259.89
2019-04-28T10:40:45.291Z,99257.52
2019-04-28T10:43:14.445Z,99251.88
2019-04-28T10:45:46.110Z,99250.80
2019-04-28T10:48:15.478Z,99248.52
2019-04-28T10:50:44.942Z,99240.95
2019-04-28T10:53:14.070Z,99240.95
2019-04-28T10:55:43.462Z,99242.72
2019-04-28T10:58:12.587Z,99227.03
2019-04-28T11:00:41.686Z,99227.03
2019-04-28T11:03:10.584Z,99222.23
2019-04-28T11:05:43.507Z,99222.23
2019-04-28T11:08:32.025Z,99232.13
2019-04-28T11:11:07.160Z,99228.56
2019-04-28T11:13:36.057Z,99224.98
2019-04-28T11:16:05.301Z,99232.99
2019-04-28T11:18:34.510Z,99230.06
2019-04-28T11:21:03.766Z,99233.62
2019-04-28T11:23:32.358Z,99230.19
2019-04-28T11:26:01.987Z,99232.42
2019-04-28T11:28:31.551Z,99236.16
2019-04-28T11:31:01.370Z,99229.77
2019-04-28T11:33:37.607Z,99233.27
2019-04-28T11:36:06.027Z,99239.91
2019-04-28T11:38:35.310Z,99230.84
2019-04-28T11:41:04.784Z,99235.62
2019-04-28T11:43:33.916Z,99241.00
2019-04-28T11:46:04.831Z,99240.06
2019-04-28T11:48:34.128Z,99236.47
2019-04-28T11:51:03.483Z,99249.69
2019-04-28T11:53:32.733Z,99250.99
2019-04-28T11:56:01.510Z,99251.75
2019-04-28T11:58:31.150Z,99244.16
2019-04-28T12:01:04.597Z,99244.16
2019-04-28T12:03:33.857Z,99261.69
2019-04-28T12:06:02.933Z,99261.69
2019-04-28T12:08:34.022Z,99267.47
2019-04-28T12:11:14.284Z,99265.59
2019-04-28T12:14:08.612Z,99262.91
2019-04-28T12:17:15.961Z,99259.35
2019-04-28T12:19:51.594Z,99259.35
2019-04-28T12:22:21.022Z,99252.14
2019-04-28T12:24:50.567Z,99252.14
2019-04-28T12:27:19.508Z,99243.91
2019-04-28T12:29:49.144Z,99243.91
2019-04-28T12:32:18.846Z,99253.87
2019-04-28T12:34:48.639Z,99245.85
2019-04-28T12:37:18.031Z,99238.20
2019-04-28T12:39:47.815Z,99245.31
2019-04-28T12:42:17.631Z,99237.16
2019-04-28T12:44:47.064Z,99234.29
2019-04-28T12:47:18.282Z,99220.98
2019-04-28T12:49:59.895Z,99224.39
2019-04-28T12:52:30.295Z,99210.06
2019-04-28T12:55:00.029Z,99209.26
2019-04-28T12:57:29.993Z,99203.89
2019-04-28T13:00:18.302Z,99198.13
2019-04-28T13:03:06.522Z,99194.36
2019-04-28T13:05:38.015Z,99183.25
2019-04-28T13:08:07.487Z,99184.64
2019-04-28T13:10:37.012Z,99175.67
2019-04-28T13:13:06.628Z,99171.59
2019-04-28T13:15:35.586Z,99167.29
2019-04-28T13:18:04.189Z,99153.81
2019-04-28T13:20:33.366Z,99156.33
2019-04-28T13:23:03.298Z,99148.19
2019-04-28T13:25:33.298Z,99148.05
2019-04-28T13:28:03.606Z,99149.92
2019-04-28T13:33:21.746Z,99134.92
2019-04-28T13:35:51.101Z,99133.83
2019-04-28T13:38:21.302Z,99132.41
2019-04-28T13:40:51.928Z,99129.56
2019-04-28T13:43:21.112Z,99129.90
2019-04-28T13:45:50.508Z,99132.45
2019-04-28T13:48:19.970Z,99131.33
2019-04-28T13:50:49.725Z,99131.33
2019-04-28T13:53:19.173Z,99127.72
2019-04-28T13:55:56.072Z,99132.23
2019-04-28T13:58:45.301Z,99128.77
2019-04-28T14:01:36.917Z,99126.73
2019-04-28T14:04:23.904Z,99121.52
2019-04-28T14:07:07.588Z,99118.94
2019-04-28T14:09:38.494Z,99119.33
2019-04-28T14:12:07.885Z,99112.29
2019-04-28T14:14:39.679Z,99112.27
2019-04-28T14:17:08.451Z,99108.39
2019-04-28T14:19:39.049Z,99105.52
2019-04-28T14:22:09.311Z,99105.52
2019-04-28T14:24:40.561Z,99105.20
2019-04-28T14:27:09.697Z,99101.98
2019-04-28T14:29:39.496Z,99098.60
2019-04-28T14:32:09.654Z,99093.27
2019-04-28T14:34:39.298Z,99096.08
2019-04-28T14:37:13.089Z,99091.88
2019-04-28T14:39:48.646Z,99091.88
2019-04-28T14:42:18.359Z,99092.42
2019-04-28T14:44:49.533Z,99091.28
2019-04-28T14:47:19.562Z,99091.84
2019-04-28T14:49:49.287Z,99076.36
2019-04-28T14:52:21.823Z,99076.36
2019-04-28T14:54:52.914Z,99084.80
2019-04-28T14:57:23.621Z,99085.08
2019-04-28T14:59:53.658Z,99088.64
2019-04-28T15:02:36.063Z,99088.64
2019-04-28T15:05:35.004Z,99088.46
2019-04-28T15:08:15.153Z,99094.65
2019-04-28T15:11:13.558Z,99091.02
2019-04-28T15:13:42.328Z,99079.24
2019-04-28T15:16:11.741Z,99079.24
2019-04-28T15:18:41.716Z,99080.36
2019-04-28T15:21:12.459Z,99083.19
2019-04-28T15:23:42.898Z,99083.94
2019-04-28T15:26:13.542Z,99080.38
2019-04-28T15:28:43.023Z,99073.09
2019-04-28T15:31:13.139Z,99073.09
2019-04-28T15:33:42.821Z,99070.84
2019-04-28T15:36:12.289Z,99073.08
2019-04-28T15:38:45.371Z,99074.78
2019-04-28T15:41:26.728Z,99078.70
2019-04-28T15:43:55.387Z,99072.80
2019-04-28T15:46:29.093Z,99075.23
2019-04-28T15:49:01.703Z,99078.55
2019-04-28T15:51:32.422Z,99084.21
2019-04-28T15:54:02.770Z,99079.47
2019-04-28T15:56:43.288Z,99080.69
2019-04-28T15:59:13.539Z,99075.80
2019-04-28T16:01:43.307Z,99077.63
2019-04-28T16:04:12.697Z,99075.42
2019-04-28T16:06:42.978Z,99082.77
2019-04-28T16:09:12.969Z,99089.50
2019-04-28T16:11:43.812Z,99076.02
2019-04-28T16:14:13.514Z,99076.88
2019-04-28T16:16:43.043Z,99078.48
2019-04-28T16:19:12.770Z,99078.48
2019-04-28T16:21:42.503Z,99085.44
2019-04-28T16:24:13.439Z,99087.70
2019-04-28T16:26:43.939Z,99083.59
2019-04-28T16:29:13.171Z,99082.95
2019-04-28T16:31:43.490Z,99076.61
2019-04-28T16:34:14.673Z,99072.72
2019-04-28T16:36:46.054Z,99072.72
2019-04-28T16:39:15.975Z,99075.06
2019-04-28T16:41:48.298Z,99076.98
2019-04-28T16:44:18.794Z,99085.03
2019-04-28T16:46:50.897Z,99091.91
2019-04-28T16:49:20.624Z,99088.57
2019-04-28T16:51:51.122Z,99096.65
2019-04-28T16:54:21.002Z,99093.91
2019-04-28T16:57:02.282Z,99099.60
2019-04-28T16:59:51.115Z,99095.76
2019-04-28T17:02:32.492Z,99093.52
2019-04-28T17:05:03.783Z,99092.63
2019-04-28T17:07:34.894Z,99085.78
2019-04-28T17:10:06.804Z,99089.09
2019-04-28T17:12:36.610Z,99095.56
2019-04-28T17:15:08.045Z,99100.04
2019-04-28T17:17:38.400Z,99100.04
2019-04-28T17:20:09.553Z,99090.39
2019-04-28T17:22:39.882Z,99090.39
2019-04-28T17:28:06.717Z,99105.91
2019-04-28T17:30:36.612Z,99106.77
2019-04-28T17:33:05.467Z,99103.73
2019-04-28T17:35:35.538Z,99109.55
2019-04-28T17:38:07.157Z,99117.52
2019-04-28T17:40:37.625Z,99116.06
2019-04-28T17:43:07.831Z,99116.06
2019-04-28T17:45:38.557Z,99118.83
2019-04-28T17:48:16.850Z,99125.66
2019-04-28T17:50:46.377Z,99125.66
2019-04-28T17:53:16.309Z,99125.21
2019-04-28T17:55:46.336Z,99118.73
2019-04-28T17:58:20.684Z,99118.73
2019-04-28T18:01:25.341Z,99134.50
2019-04-28T18:04:14.641Z,99132.91
2019-04-28T18:06:47.311Z,99136.05
2019-04-28T18:09:17.702Z,99145.06
2019-04-28T18:11:46.600Z,99152.94
2019-04-28T18:14:16.452Z,99149.80
2019-04-28T18:17:14.622Z,99149.80
2019-04-28T18:20:15.705Z,99156.47
2019-04-28T18:22:44.971Z,99156.75
2019-04-28T18:25:14.931Z,99170.37
2019-04-28T18:27:44.553Z,99168.70
2019-04-28T18:30:15.710Z,99167.63
2019-04-28T18:33:04.675Z,99169.28
2019-04-28T18:35:37.806Z,99171.27
2019-04-28T18:38:13.705Z,99170.52
2019-04-28T18:41:47.751Z,99175.83
2019-04-28T18:44:20.071Z,99180.50
2019-04-28T18:46:50.771Z,99182.64
2019-04-28T18:52:07.139Z,99188.50
2019-04-28T18:54:39.088Z,99201.19
2019-04-28T18:57:08.763Z,99200.74
2019-04-28T18:59:38.780Z,99216.96
2019-04-28T19:02:20.874Z,99221.50
2019-04-28T19:04:50.704Z,99230.72
2019-04-28T19:07:34.939Z,99238.66
2019-04-28T19:10:11.514Z,99238.63
2019-04-28T19:12:56.476Z,99244.28
2019-04-28T19:15:52.906Z,99254.19
2019-04-28T19:18:27.785Z,99254.19
2019-04-28T19:20:57.727Z,99248.33
2019-04-28T19:23:27.565Z,99249.42
2019-04-28T19:25:56.999Z,99257.30
2019-04-28T19:28:26.195Z,99255.28
2019-04-28T19:30:59.116Z,99260.17
2019-04-28T19:33:28.538Z,99266.80
2019-04-28T19:35:58.542Z,99268.47
2019-04-28T19:38:28.248Z,99270.75
2019-04-28T19:40:58.315Z,99268.91
2019-04-28T19:43:29.044Z,99268.63
2019-04-28T19:46:01.360Z,99268.27
2019-04-28T19:48:31.894Z,99272.95
2019-04-28T19:51:02.950Z,99271.27
2019-04-28T19:56:32.157Z,99270.20
2019-04-28T19:59:22.120Z,99274.21
2019-04-28T20:01:53.336Z,99280.05
2019-04-28T20:04:23.008Z,99287.13
2019-04-28T20:06:54.580Z,99288.38
2019-04-28T20:09:25.485Z,99296.41
2019-04-28T20:11:55.323Z,99298.45
2019-04-28T20:14:28.326Z,99298.45
2019-04-28T20:16:57.823Z,99301.71
2019-04-28T20:19:27.353Z,99308.00
2019-04-28T20:22:00.499Z,99308.06
2019-04-28T20:24:46.347Z,99302.05
2019-04-28T20:27:05.034Z,99302.88
2019-04-28T20:29:38.139Z,99299.78
2019-04-28T20:32:09.281Z,99313.30
2019-04-28T20:34:38.503Z,99309.47
2019-04-28T20:37:33.499Z,99316.83
2019-04-28T20:40:09.926Z,99316.83
2019-04-28T20:43:02.199Z,99318.43
2019-04-28T20:45:33.051Z,99328.16
2019-04-28T20:48:03.352Z,99327.80
2019-04-28T20:50:34.159Z,99329.38
2019-04-28T20:53:03.703Z,99329.38
2019-04-28T20:55:32.028Z,99335.96
2019-04-28T20:58:01.618Z,99335.96
2019-04-28T21:00:29.975Z,99326.83
2019-04-28T21:02:59.790Z,99334.48
2019-04-28T21:05:29.482Z,99335.32
2019-04-28T21:08:00.175Z,99336.28
2019-04-28T21:10:37.740Z,99336.28
2019-04-28T21:13:01.802Z,99335.32
2019-04-28T21:15:31.042Z,99325.83
2019-04-28T21:18:00.531Z,99343.19
2019-04-28T21:20:31.600Z,99341.36
2019-04-28T21:23:00.866Z,99333.73
2019-04-28T21:28:19.309Z,99347.86
2019-04-28T21:30:48.155Z,99349.24
2019-04-28T21:33:17.313Z,99346.25
2019-04-28T21:35:46.330Z,99352.06
2019-04-28T21:38:15.923Z,99357.69
2019-04-28T21:40:54.526Z,99358.25
2019-04-28T21:43:32.127Z,99354.61
2019-04-28T21:46:23.875Z,99354.61
2019-04-28T21:48:56.948Z,99351.78
2019-04-28T21:51:26.411Z,99359.13
2019-04-28T21:53:55.793Z,99364.45
2019-04-28T21:56:24.675Z,99359.15
2019-04-28T21:58:54.077Z,99359.14
2019-04-28T22:01:23.872Z,99366.67
2019-04-28T22:03:53.303Z,99363.25
2019-04-28T22:06:22.504Z,99360.92
2019-04-28T22:08:50.910Z,99365.42
2019-04-28T22:11:20.088Z,99364.88
2019-04-28T22:13:49.501Z,99362.95
2019-04-28T22:16:18.892Z,99365.28
2019-04-28T22:18:49.130Z,99365.28
2019-04-28T22:21:17.940Z,99366.76
2019-04-28T22:24:05.584Z,99367.09
2019-04-28T22:26:43.313Z,99369.81
2019-04-28T22:29:12.809Z,99366.88
2019-04-28T22:31:42.959Z,99359.97
2019-04-28T22:34:15.548Z,99365.27
2019-04-28T22:36:46.027Z,99368.91
2019-04-28T22:39:16.835Z,99371.64
2019-04-28T22:41:46.035Z,99385.52
2019-04-28T22:44:15.118Z,99378.06
2019-04-28T22:46:44.426Z,99377.30
2019-04-28T22:49:13.706Z,99373.21
2019-04-28T22:51:43.606Z,99372.89
2019-04-28T22:54:38.065Z,99367.92
2019-04-28T22:57:45.960Z,99367.92
2019-04-28T23:00:43.806Z,99380.82
2019-04-28T23:03:17.953Z,99382.17
2019-04-28T23:05:47.078Z,99387.19
2019-04-28T23:08:16.174Z,99386.42
2019-04-28T23:10:45.380Z,99386.68
2019-04-28T23:16:00.320Z,99386.09
2019-04-28T23:18:29.723Z,99392.49
2019-04-28T23:21:01.130Z,99394.88
2019-04-28T23:23:30.129Z,99394.88
2019-04-28T23:26:02.916Z,99396.91
2019-04-28T23:28:31.165Z,99391.98
2019-04-28T23:31:00.087Z,99392.16
2019-04-28T23:33:29.124Z,99391.97
2019-04-28T23:35:58.445Z,99392.25
2019-04-28T23:38:27.450Z,99391.83
2019-04-28T23:41:13.883Z,99388.36
2019-04-28T23:43:42.964Z,99387.75
2019-04-28T23:46:11.946Z,99388.53
2019-04-28T23:48:43.396Z,99388.39
2019-04-28T23:51:22.874Z,99385.73
2019-04-28T23:54:05.940Z,99389.45
2019-04-28T23:56:36.516Z,99397.64
2019-04-28T23:59:06.442Z,99384.73
